Time;durP1;ratioP1;P1;durP2;ratioP2;P2;SDS_P1;SDS_P2;PMS_P1;PMS_P2;Temp;Humidity;BMP_temperature;BMP_pressure;BME280_temperature;BME280_humidity;BME280_pressure;Samples;Min_cycle;Max_cycle;Signal;HPM_P1;HPM_P2
2023/01/03 00:02:03;;;;;;;5.25;1.98;;;;;;;2.44;100.00;100927.16;5152349;27;20062;-88
2023/01/03 00:04:30;;;;;;;8.10;2.28;;;;;;;2.27;100.00;100891.88;5139193;27;20506;-88
2023/01/03 00:06:57;;;;;;;4.65;1.90;;;;;;;2.51;100.00;100915.09;5130470;27;20162;-87
2023/01/03 00:09:24;;;;;;;4.32;1.92;;;;;;;2.27;100.00;100884.13;5133078;27;20049;-88
2023/01/03 00:14:40;;;;;;;4.80;1.80;;;;;;;2.32;100.00;100883.25;5144242;27;20050;-87
2023/01/03 00:17:08;;;;;;;6.15;2.13;;;;;;;2.41;100.00;100920.28;5136891;27;20053;-87
2023/01/03 00:19:41;;;;;;;5.13;2.10;;;;;;;2.30;100.00;100896.16;5135665;27;20042;-88
2023/01/03 00:22:09;;;;;;;7.82;2.00;;;;;;;2.25;100.00;100882.41;5132695;27;20058;-88
2023/01/03 00:24:36;;;;;;;9.63;2.33;;;;;;;2.33;100.00;100905.66;5131208;27;20484;-87
2023/01/03 00:27:03;;;;;;;3.67;1.50;;;;;;;2.37;100.00;100903.03;5131349;27;20054;-87
2023/01/03 00:29:30;;;;;;;5.60;1.90;;;;;;;1.99;100.00;100859.19;5131266;27;20720;-88
2023/01/03 00:31:57;;;;;;;5.72;1.98;;;;;;;2.17;100.00;100884.97;5137067;27;20061;-88
2023/01/03 00:34:25;;;;;;;5.97;2.35;;;;;;;2.04;100.00;100875.53;5139685;27;20057;-88
2023/01/03 00:36:52;;;;;;;4.97;1.95;;;;;;;2.11;100.00;100897.91;5154147;27;20055;-89
2023/01/03 00:39:19;;;;;;;10.02;2.42;;;;;;;1.74;100.00;100853.16;5139514;27;20426;-88
2023/01/03 00:41:46;;;;;;;5.80;1.98;;;;;;;1.99;100.00;100893.59;5139308;27;20053;-88
2023/01/03 00:44:13;;;;;;;6.53;2.28;;;;;;;1.99;100.00;100893.59;5140631;27;20503;-89
2023/01/03 00:46:41;;;;;;;7.68;2.33;;;;;;;1.94;100.00;100876.38;5140395;27;20057;-89
2023/01/03 00:49:09;;;;;;;6.60;2.70;;;;;;;1.86;100.00;100877.25;5158976;27;20130;-88
2023/01/03 00:51:38;;;;;;;8.13;2.50;;;;;;;2.25;100.00;100906.53;5138794;27;20047;-88
2023/01/03 00:54:07;;;;;;;10.25;2.38;;;;;;;2.08;100.00;100890.16;5137513;27;20045;-87
2023/01/03 00:56:37;;;;;;;6.85;2.50;;;;;;;2.16;100.00;100900.47;5139611;27;20055;-88
2023/01/03 00:59:05;;;;;;;7.72;3.17;;;;;;;1.75;100.00;100860.03;5139183;27;20130;-88
2023/01/03 01:01:38;;;;;;;8.20;2.70;;;;;;;1.93;100.00;100879.81;5138246;27;20047;-88
2023/01/03 01:04:22;;;;;;;6.90;2.53;;;;;;;2.03;100.00;100897.91;5158428;27;20046;-89
2023/01/03 01:07:00;;;;;;;7.57;2.60;;;;;;;2.15;100.00;100917.72;5139324;27;20054;-88
2023/01/03 01:09:33;;;;;;;5.82;2.33;;;;;;;1.92;100.00;100855.72;5151076;27;20535;-88
2023/01/03 01:12:01;;;;;;;7.63;2.92;;;;;;;2.21;100.00;100903.94;5134712;27;20057;-87
2023/01/03 01:14:29;;;;;;;10.93;3.58;;;;;;;1.69;100.00;100876.38;5135584;27;20077;-88
2023/01/03 01:17:02;;;;;;;7.75;3.10;;;;;;;1.97;100.00;100904.81;5135992;27;20043;-89
2023/01/03 01:19:33;;;;;;;6.65;2.63;;;;;;;1.94;100.00;100885.00;5139650;27;20053;-88
2023/01/03 01:22:00;;;;;;;9.35;3.30;;;;;;;1.89;100.00;100879.84;5138970;27;20047;-89
2023/01/03 01:24:27;;;;;;;8.85;3.03;;;;;;;1.67;100.00;100850.56;5139568;27;20403;-89
2023/01/03 01:26:54;;;;;;;6.80;2.40;;;;;;;1.93;100.00;100883.28;5122203;27;20066;-89
2023/01/03 01:29:21;;;;;;;7.82;3.03;;;;;;;1.67;100.00;100872.94;5119783;27;20093;-89
2023/01/03 01:31:48;;;;;;;8.90;3.00;;;;;;;1.58;100.00;100847.97;5135404;27;20062;-88
2023/01/03 01:34:16;;;;;;;7.05;2.83;;;;;;;1.01;100.00;100742.13;5140216;27;20062;-89
2023/01/03 01:36:44;;;;;;;6.32;2.58;;;;;;;1.74;100.00;100873.81;5139247;27;20055;-89
2023/01/03 01:39:15;;;;;;;8.52;3.25;;;;;;;1.94;100.00;100895.31;5157662;27;20039;-89
2023/01/03 01:44:53;;;;;;;8.85;3.15;;;;;;;1.81;100.00;100896.19;5146084;27;20039;-89
2023/01/03 01:47:32;;;;;;;6.32;2.63;;;;;;;1.78;100.00;100893.59;5135643;28;20043;-88
2023/01/03 01:50:23;;;;;;;11.15;3.88;;;;;;;1.69;100.00;100881.53;5140225;27;20634;-89
2023/01/03 01:52:56;;;;;;;9.68;3.67;;;;;;;1.21;100.00;100827.25;5126923;27;20061;-88
2023/01/03 01:55:34;;;;;;;10.93;4.47;;;;;;;1.43;100.00;100861.69;5124583;28;20062;-88
2023/01/03 01:58:01;;;;;;;10.35;4.40;;;;;;;1.27;100.00;100826.41;5119035;28;20062;-88
2023/01/03 02:00:29;;;;;;;9.82;4.20;;;;;;;1.45;100.00;100849.69;5130222;28;20124;-89
2023/01/03 02:02:55;;;;;;;11.35;4.97;;;;;;;1.40;100.00;100853.09;5128353;27;20051;-89
2023/01/03 02:05:24;;;;;;;8.85;3.75;;;;;;;1.68;100.00;100885.84;5145482;27;20053;-88
2023/01/03 02:07:52;;;;;;;8.50;3.30;;;;;;;1.69;100.00;100877.22;5141203;27;20047;-89
2023/01/03 02:10:33;;;;;;;9.85;3.30;;;;;;;1.58;100.00;100845.38;5158312;27;20051;-89
2023/01/03 02:13:13;;;;;;;13.43;5.10;;;;;;;1.60;100.00;100860.88;5143894;27;20047;-89
2023/01/03 02:16:00;;;;;;;10.25;4.28;;;;;;;1.84;100.00;100889.31;5151020;27;20460;-89
2023/01/03 02:18:56;;;;;;;8.30;3.70;;;;;;;1.91;100.00;100895.31;5140388;27;20437;-89
2023/01/03 02:21:53;;;;;;;12.45;4.00;;;;;;;1.68;100.00;100893.59;5145227;27;20085;-90
2023/01/03 02:24:44;;;;;;;13.32;5.38;;;;;;;1.81;100.00;100875.53;5134319;27;20051;-90
2023/01/03 02:27:23;;;;;;;8.80;4.10;;;;;;;1.83;100.00;100890.16;5124775;27;20035;-89
2023/01/03 02:30:07;;;;;;;8.68;3.63;;;;;;;1.81;100.00;100878.97;5156888;27;20065;-89
2023/01/03 02:32:34;;;;;;;13.35;5.15;;;;;;;1.77;100.00;100873.78;5132799;27;20058;-89
2023/01/03 02:35:05;;;;;;;8.90;3.58;;;;;;;1.24;100.00;100803.19;5142320;27;20050;-89
2023/01/03 02:37:47;;;;;;;10.68;4.53;;;;;;;1.71;100.00;100869.47;5136856;27;20057;-89
2023/01/03 02:40:36;;;;;;;13.73;6.72;;;;;;;1.54;100.00;100832.47;5136951;27;20046;-88
2023/01/03 02:43:04;;;;;;;12.70;5.70;;;;;;;1.61;100.00;100860.88;5137186;27;20058;-89
2023/01/03 02:45:59;;;;;;;12.77;4.25;;;;;;;1.61;100.00;100844.53;5143494;27;20054;-89
2023/01/03 02:48:57;;;;;;;14.57;6.35;;;;;;;1.51;100.00;100847.09;5143942;27;20042;-88
2023/01/03 02:51:42;;;;;;;10.70;4.18;;;;;;;1.60;100.00;100829.91;5133631;27;20391;-88
2023/01/03 02:54:13;;;;;;;9.70;4.15;;;;;;;1.63;100.00;100835.94;5158443;27;20050;-88
2023/01/03 02:57:11;;;;;;;10.00;4.15;;;;;;;1.61;100.00;100829.91;5131752;27;20058;-89
2023/01/03 02:59:41;;;;;;;11.40;4.22;;;;;;;1.17;100.00;100768.81;5142544;27;20481;-89
2023/01/03 03:02:10;;;;;;;9.32;4.00;;;;;;;0.68;100.00;100668.16;5143341;27;20524;-88
2023/01/03 03:04:39;;;;;;;10.52;3.67;;;;;;;1.59;100.00;100821.28;5143415;27;20050;-89
2023/01/03 03:07:18;;;;;;;10.20;3.35;;;;;;;1.13;100.00;100734.41;5143563;27;20488;-88
2023/01/03 03:15:22;;;;;;;9.68;3.17;;;;;;;1.31;100.00;100753.31;5141019;27;20054;-89
2023/01/03 03:17:55;;;;;;;10.00;4.53;;;;;;;1.55;100.00;100780.00;5144382;27;20047;-89
2023/01/03 03:26:03;;;;;;;9.27;3.28;;;;;;;1.36;100.00;100714.63;5161003;27;20099;-89
2023/01/03 03:28:35;;;;;;;6.97;2.67;;;;;;;1.88;100.00;100789.47;5157881;27;20046;-88
2023/01/03 03:31:18;;;;;;;7.70;3.20;;;;;;;1.75;100.00;100764.50;5149234;27;20129;-88
2023/01/03 03:33:55;;;;;;;9.35;3.15;;;;;;;1.81;100.00;100782.59;5142961;27;20042;-89
2023/01/03 03:36:34;;;;;;;8.20;3.22;;;;;;;1.82;100.00;100774.81;5142862;27;20580;-89
2023/01/03 03:39:02;;;;;;;8.00;2.80;;;;;;;1.42;100.00;100707.75;5141771;27;20046;-87
2023/01/03 03:47:23;;;;;;;;;;;;;;;1.83;100.00;100750.72;5158817;27;20046;-89
2023/01/03 03:49:53;;;;;;;10.05;3.13;;;;;;;1.64;100.00;100726.66;5132858;27;19929;-89
2023/01/03 03:52:25;;;;;;;9.27;3.78;;;;;;;1.36;100.00;100678.50;5144487;27;20055;-88
2023/01/03 03:55:05;;;;;;;7.87;3.37;;;;;;;1.45;100.00;100710.34;5143535;27;20455;-89
2023/01/03 03:57:43;;;;;;;6.70;2.70;;;;;;;1.73;100.00;100756.75;5142524;27;20054;-89
2023/01/03 04:00:15;;;;;;;7.85;2.38;;;;;;;1.50;100.00;100692.25;5154700;27;20408;-89
2023/01/03 04:02:45;;;;;;;6.72;2.60;;;;;;;1.59;100.00;100718.06;5142249;27;20042;-88
2023/01/03 04:05:19;;;;;;;5.18;2.30;;;;;;;1.78;100.00;100741.28;5142161;27;20081;-89
2023/01/03 04:07:46;;;;;;;8.32;3.05;;;;;;;1.78;100.00;100746.44;5142691;27;20126;-88
2023/01/03 04:10:18;;;;;;;6.53;2.15;;;;;;;1.80;100.00;100734.38;5137521;27;20043;-89
2023/01/03 04:12:47;;;;;;;5.70;2.38;;;;;;;1.75;100.00;100718.03;5141885;27;20046;-88
2023/01/03 04:15:15;;;;;;;6.95;2.45;;;;;;;1.47;100.00;100679.34;5141228;27;20843;-88
2023/01/03 04:17:42;;;;;;;5.93;2.10;;;;;;;1.81;100.00;100736.13;5141920;27;20103;-88
2023/01/03 04:20:11;;;;;;;10.05;3.17;;;;;;;1.59;100.00;100702.56;5141680;27;20042;-89
2023/01/03 04:22:37;;;;;;;11.85;3.22;;;;;;;1.54;100.00;100690.53;5158378;27;20385;-88
2023/01/03 04:25:05;;;;;;;7.75;2.80;;;;;;;1.70;100.00;100702.56;5136627;27;20057;-89
2023/01/03 04:27:33;;;;;;;6.93;2.28;;;;;;;1.92;100.00;100726.63;5130729;27;20054;-88
2023/01/03 04:30:00;;;;;;;8.35;2.92;;;;;;;1.64;100.00;100685.34;5159247;27;20057;-89
2023/01/03 04:32:27;;;;;;;6.55;2.72;;;;;;;1.68;100.00;100681.03;5134251;27;20039;-88
2023/01/03 04:34:53;;;;;;;7.78;2.63;;;;;;;1.82;100.00;100681.03;5147658;27;20428;-87
2023/01/03 04:37:20;;;;;;;4.80;2.20;;;;;;;1.62;100.00;100642.34;5143063;27;20739;-89
2023/01/03 04:39:47;;;;;;;8.88;2.55;;;;;;;1.76;100.00;100673.31;5138462;27;20043;-88
2023/01/03 04:45:00;;;;;;;7.45;2.60;;;;;;;1.80;100.00;100638.88;5145558;27;20050;-88
2023/01/03 04:47:26;;;;;;;9.48;3.15;;;;;;;1.98;100.00;100663.75;5139868;27;20464;-89
2023/01/03 04:49:53;;;;;;;8.00;2.75;;;;;;;2.22;100.00;100670.56;5159802;27;20404;-89
2023/01/03 04:52:20;;;;;;;9.90;2.92;;;;;;;2.19;100.00;100647.31;5142008;27;20104;-88
2023/01/03 04:54:47;;;;;;;9.43;3.20;;;;;;;2.28;100.00;100647.28;5137785;27;20476;-88
2023/01/03 04:57:14;;;;;;;9.27;2.50;;;;;;;2.33;100.00;100635.19;5137440;27;20043;-89
2023/01/03 04:59:40;;;;;;;10.07;2.88;;;;;;;2.23;100.00;100600.81;5140424;27;20066;-89
2023/01/03 05:02:07;;;;;;;7.07;2.58;;;;;;;2.65;100.00;100665.16;5128627;27;20060;-89
2023/01/03 05:04:34;;;;;;;8.02;2.33;;;;;;;2.71;100.00;100675.47;5129277;27;20544;-89
2023/01/03 05:07:01;;;;;;;10.25;2.80;;;;;;;2.16;100.00;100557.81;5159158;27;20078;-89
2023/01/03 05:09:28;;;;;;;7.22;2.42;;;;;;;2.53;100.00;100616.97;5133197;27;20379;-88
2023/01/03 05:11:55;;;;;;;9.13;3.10;;;;;;;2.39;100.00;100603.28;5156731;27;20043;-89
2023/01/03 05:14:22;;;;;;;7.47;2.53;;;;;;;2.89;100.00;100660.72;5137493;27;20058;-91
2023/01/03 05:16:48;;;;;;;5.15;2.03;;;;;;;2.84;100.00;100630.56;5124045;27;20066;-90
2023/01/03 05:19:15;;;;;;;11.23;2.10;;;;;;;2.88;100.00;100618.47;5144538;27;20042;-88
2023/01/03 05:27:13;;;;;;;9.35;2.63;;;;;;;3.13;100.00;100616.50;5138763;27;20050;-89
2023/01/03 05:29:40;;;;;;;13.10;3.00;;;;;;;3.01;100.00;100616.63;5138491;27;20043;-88
2023/01/03 05:32:07;;;;;;;6.57;2.28;;;;;;;3.14;100.00;100623.41;5120535;27;20047;-87
2023/01/03 05:34:34;;;;;;;5.95;2.10;;;;;;;3.17;100.00;100605.28;5134839;27;20048;-87
2023/01/03 05:37:00;;;;;;;6.35;2.08;;;;;;;3.23;100.00;100600.03;5128063;27;20054;-87
2023/01/03 05:39:27;;;;;;;10.43;2.95;;;;;;;3.40;100.00;100599.88;5131915;27;20057;-88
2023/01/03 05:42:00;;;;;;;9.32;2.95;;;;;;;3.39;100.00;100577.44;5137438;27;20047;-88
2023/01/03 05:44:31;;;;;;;7.50;2.50;;;;;;;3.54;100.00;100589.41;5138208;27;20078;-88
2023/01/03 05:46:59;;;;;;;9.10;2.08;;;;;;;3.57;100.00;100560.84;5131446;28;20054;-88
2023/01/03 05:49:26;;;;;;;9.88;2.10;;;;;;;3.53;100.00;100561.78;5131123;27;20066;-88
2023/01/03 05:51:53;;;;;;;11.45;2.55;;;;;;;3.56;100.00;100566.03;5132691;28;20051;-88
2023/01/03 05:54:20;;;;;;;8.88;2.05;;;;;;;3.68;100.00;100555.56;5128592;27;20153;-88
2023/01/03 05:56:47;;;;;;;14.20;2.78;;;;;;;3.78;100.00;100564.06;5138494;27;20046;-87
2023/01/03 05:59:14;;;;;;;8.60;2.28;;;;;;;3.78;100.00;100533.84;5129085;28;20043;-88
2023/01/03 06:01:41;;;;;;;10.80;2.50;;;;;;;3.74;100.00;100513.22;5130913;27;20042;-88
2023/01/03 06:04:08;;;;;;;8.73;2.90;;;;;;;4.13;100.00;100531.69;5137765;27;20062;-87
2023/01/03 06:06:35;;;;;;;9.93;2.40;;;;;;;4.21;100.00;100528.97;5137764;27;20050;-88
2023/01/03 06:09:02;;;;;;;10.70;2.70;;;;;;;4.32;100.00;100538.31;5116366;28;20051;-88
2023/01/03 06:11:29;;;;;;;11.30;2.35;;;;;;;4.32;100.00;100525.34;5128484;27;20061;-86
2023/01/03 06:13:55;;;;;;;12.55;2.55;;;;;;;4.24;100.00;100482.28;5155567;27;20050;-87
2023/01/03 06:19:08;;;;;;;10.80;2.55;;;;;;;4.68;100.00;100540.34;5154265;27;20047;-87
2023/01/03 06:21:35;;;;;;;14.25;2.85;;;;;;;4.47;100.00;100541.53;5136348;27;20047;-86
2023/01/03 06:24:03;;;;;;;16.17;3.00;;;;;;;4.41;100.00;100516.56;5155023;27;20050;-87
2023/01/03 06:26:30;;;;;;;27.38;4.65;;;;;;;4.16;100.00;100470.28;5126523;28;20042;-87
2023/01/03 06:28:58;;;;;;;10.00;2.35;;;;;;;4.61;100.00;100534.38;5150201;27;20051;-88
2023/01/03 06:31:25;;;;;;;9.30;2.03;;;;;;;4.45;100.00;100500.06;5136171;27;20057;-88
2023/01/03 06:33:51;;;;;;;15.73;2.58;;;;;;;4.55;100.00;100514.59;5136007;27;20502;-87
2023/01/03 06:36:20;;;;;;;13.77;3.00;;;;;;;4.39;100.00;100507.94;5136317;27;20046;-87
2023/01/03 06:38:47;;;;;;;7.47;2.08;;;;;;;4.32;100.00;100462.25;5154437;27;20046;-87
2023/01/03 06:41:15;;;;;;;8.25;2.78;;;;;;;4.15;100.00;100439.22;5134962;27;20043;-87
2023/01/03 06:43:42;;;;;;;11.93;3.05;;;;;;;4.10;100.00;100430.66;5123916;28;20047;-87
2023/01/03 06:54:34;;;;;;;13.00;2.60;;;;;;;4.65;100.00;100491.09;5148884;27;20656;-85
2023/01/03 06:57:01;;;;;;;21.48;3.85;;;;;;;4.38;100.00;100446.63;5120465;27;20625;-87
2023/01/03 06:59:28;;;;;;;7.72;2.20;;;;;;;4.52;100.00;100467.97;5138314;27;20043;-85
2023/01/03 07:01:55;;;;;;;12.15;2.30;;;;;;;4.78;100.00;100461.50;5152607;27;20047;-85
2023/01/03 07:04:23;;;;;;;8.55;2.30;;;;;;;5.08;100.00;100477.34;5138993;27;20463;-85
2023/01/03 07:06:50;;;;;;;12.43;2.45;;;;;;;4.56;100.00;100422.94;5157364;27;20103;-86
2023/01/03 07:09:17;;;;;;;11.32;2.92;;;;;;;4.77;100.00;100441.63;5138549;27;20502;-85
2023/01/03 07:11:44;;;;;;;12.00;2.45;;;;;;;4.72;100.00;100431.31;5156351;27;20103;-85
2023/01/03 07:14:11;;;;;;;9.55;2.60;;;;;;;4.53;100.00;100404.88;5131721;27;20043;-85
2023/01/03 07:16:44;;;;;;;11.93;2.38;;;;;;;4.70;100.00;100427.91;5126506;27;20050;-87
2023/01/03 07:19:14;;;;;;;12.05;3.08;;;;;;;4.61;100.00;100456.59;5156209;27;20047;-85
2023/01/03 07:21:42;;;;;;;8.55;2.40;;;;;;;4.67;100.00;100447.84;5136488;27;20054;-84
2023/01/03 07:24:15;;;;;;;10.15;2.72;;;;;;;4.67;100.00;100448.69;5150028;27;20054;-87
2023/01/03 07:26:41;;;;;;;10.50;2.40;;;;;;;4.26;100.00;100374.25;5144863;27;20481;-85
2023/01/03 07:29:09;;;;;;;9.63;2.45;;;;;;;4.79;100.00;100426.03;5138170;27;20050;-85
2023/01/03 07:31:40;;;;;;;10.05;2.55;;;;;;;4.42;100.00;100399.00;5136907;27;20065;-85
2023/01/03 07:34:08;;;;;;;6.60;1.90;;;;;;;4.68;100.00;100429.66;5122860;27;20047;-85
2023/01/03 07:36:35;;;;;;;17.48;2.60;;;;;;;4.45;100.00;100386.00;5147063;27;20051;-84
2023/01/03 07:39:02;;;;;;;10.73;2.70;;;;;;;4.78;100.00;100416.53;5131798;27;20058;-85
2023/01/03 07:44:14;;;;;;;11.57;2.28;;;;;;;4.65;100.00;100390.81;5152090;27;20046;-86
2023/01/03 07:46:40;;;;;;;15.23;2.63;;;;;;;4.88;100.00;100425.84;5130482;27;20061;-88
2023/01/03 07:49:07;;;;;;;11.57;2.70;;;;;;;4.48;100.00;100356.56;5138573;27;20053;-87
2023/01/03 07:51:37;;;;;;;12.90;3.08;;;;;;;4.49;100.00;100351.34;5135083;27;20088;-86
2023/01/03 07:54:05;;;;;;;16.50;3.25;;;;;;;4.42;100.00;100305.69;5144915;27;20050;-88
2023/01/03 07:56:32;;;;;;;15.20;2.63;;;;;;;4.71;100.00;100318.09;5135089;27;20493;-84
2023/01/03 07:58:59;;;;;;;8.30;2.15;;;;;;;4.95;100.00;100355.63;5137879;27;20058;-84
2023/01/03 08:01:25;;;;;;;11.63;2.30;;;;;;;4.93;100.00;100385.94;5122995;27;20043;-84
2023/01/03 08:03:52;;;;;;;11.35;2.35;;;;;;;4.56;100.00;100329.59;5121793;27;20046;-84
2023/01/03 08:06:22;;;;;;;7.45;2.10;;;;;;;5.17;100.00;100370.78;5152164;27;20046;-84
2023/01/03 08:13:16;;;;;;;10.52;2.65;;;;;;;4.90;100.00;100325.50;5147738;27;20043;-84
2023/01/03 08:14:22;;;;;;;18.08;3.20;;;;;;;4.86;100.00;100275.41;5140998;27;20039;-85
2023/01/03 08:16:53;;;;;;;10.25;2.47;;;;;;;5.19;100.00;100321.41;5132983;27;20047;-84
2023/01/03 08:19:20;;;;;;;9.00;3.08;;;;;;;4.73;100.00;100248.88;5133074;27;20055;-85
2023/01/03 08:21:46;;;;;;;13.98;3.30;;;;;;;4.77;100.00;100246.22;5125917;27;20039;-85
2023/01/03 08:24:13;;;;;;;10.25;2.65;;;;;;;5.03;100.00;100300.13;5127689;27;20053;-86
2023/01/03 08:26:40;;;;;;;18.58;3.35;;;;;;;4.97;100.00;100258.75;5126126;27;20502;-84
2023/01/03 08:29:07;;;;;;;11.00;2.72;;;;;;;5.19;100.00;100277.28;5151124;27;20625;-84
2023/01/03 08:31:39;;;;;;;10.43;3.17;;;;;;;4.75;100.00;100225.50;5129597;27;20741;-85
2023/01/03 08:34:10;;;;;;;11.43;2.90;;;;;;;4.86;100.00;100236.50;5152878;27;20053;-84
2023/01/03 08:36:50;;;;;;;13.40;3.80;;;;;;;4.56;100.00;100212.09;5131691;27;20118;-83
2023/01/03 08:39:21;;;;;;;14.98;3.00;;;;;;;4.95;100.00;100261.38;5130475;27;20039;-85
2023/01/03 08:42:03;;;;;;;17.48;3.15;;;;;;;4.69;100.00;100215.25;5147568;27;20043;-84
2023/01/03 08:44:30;;;;;;;16.33;3.85;;;;;;;5.05;100.00;100254.28;5135985;27;20038;-85
2023/01/03 08:47:01;;;;;;;27.63;5.95;;;;;;;5.24;100.00;100259.88;5136055;27;20046;-85
2023/01/03 08:49:29;;;;;;;18.05;3.55;;;;;;;4.96;100.00;100211.22;5130502;27;20055;-85
2023/01/03 08:51:55;;;;;;;15.73;3.55;;;;;;;4.89;100.00;100169.00;5145598;27;20395;-86
2023/01/03 08:54:22;;;;;;;13.52;3.90;;;;;;;5.01;100.00;100206.78;5133624;27;20047;-86
2023/01/03 08:56:49;;;;;;;16.38;4.28;;;;;;;5.07;100.00;100204.03;5122069;27;20044;-85
2023/01/03 08:59:16;;;;;;;18.48;4.75;;;;;;;4.96;100.00;100200.84;5125283;27;20080;-85
2023/01/03 09:01:42;;;;;;;12.25;3.30;;;;;;;5.06;100.00;100171.16;5129638;27;20043;-85
2023/01/03 09:04:09;;;;;;;19.67;3.65;;;;;;;4.90;100.00;100180.22;5153795;27;20050;-85
2023/01/03 09:06:37;;;;;;;15.68;4.00;;;;;;;5.13;100.00;100196.13;5135635;27;20054;-85
2023/01/03 09:09:08;;;;;;;13.32;3.30;;;;;;;5.55;100.00;100221.03;5127301;27;20054;-84
2023/01/03 09:11:35;;;;;;;21.63;4.10;;;;;;;5.53;100.00;100183.03;5132644;27;20035;-85
2023/01/03 09:14:01;;;;;;;18.40;3.53;;;;;;;5.34;100.00;100162.72;5135799;27;20372;-86
2023/01/03 09:16:28;;;;;;;13.95;3.38;;;;;;;5.69;100.00;100207.72;5132277;27;20046;-85
2023/01/03 09:18:55;;;;;;;24.90;5.18;;;;;;;5.68;100.00;100190.41;5149817;27;20047;-86
2023/01/03 09:21:22;;;;;;;24.08;3.95;;;;;;;5.49;100.00;100153.69;5142668;27;20043;-85
2023/01/03 09:23:48;;;;;;;18.33;4.60;;;;;;;5.36;100.00;100152.28;5135675;27;20054;-85
2023/01/03 09:26:15;;;;;;;20.88;4.97;;;;;;;5.69;100.00;100163.56;5135500;27;20050;-85
2023/01/03 09:28:42;;;;;;;14.82;3.92;;;;;;;5.86;100.00;100163.09;5131344;27;20059;-85
2023/01/03 09:31:09;;;;;;;13.15;3.47;;;;;;;5.46;100.00;100104.44;5142461;27;20042;-87
2023/01/03 09:33:36;;;;;;;17.17;4.88;;;;;;;5.52;100.00;100083.47;5130278;27;20062;-85
2023/01/03 09:36:03;;;;;;;12.48;4.00;;;;;;;5.72;100.00;100116.72;5132082;27;20469;-86
2023/01/03 09:38:30;;;;;;;20.02;4.90;;;;;;;5.63;100.00;100093.56;5132449;27;20045;-85
2023/01/03 09:41:25;;;;;;;24.42;5.95;;;;;;;5.86;100.00;100144.91;5150475;27;20047;-86
2023/01/03 09:44:01;;;;;;;28.90;5.53;;;;;;;5.92;100.00;100142.16;5137728;27;20057;-86
2023/01/03 09:46:31;;;;;;;26.98;5.30;;;;;;;5.82;100.00;100125.09;5125105;27;20043;-84
2023/01/03 09:49:00;;;;;;;29.70;6.15;;;;;;;5.90;100.00;100136.16;5131341;27;20051;-86
2023/01/03 10:03:43;;;;;;;21.38;5.53;;;;;;;6.20;100.00;100177.81;5149896;27;20046;-85
2023/01/03 10:06:57;;;;;;;17.48;3.92;;;;;;;6.03;100.00;100162.66;5129152;27;20071;-86
2023/01/03 10:09:27;;;;;;;21.98;4.30;;;;;;;6.15;100.00;100148.47;5120511;27;20581;-85
2023/01/03 10:12:14;;;;;;;22.63;4.50;;;;;;;6.35;100.00;100151.34;5128263;27;20062;-85
2023/01/03 10:14:53;;;;;;;32.97;6.40;;;;;;;6.31;100.00;100138.50;5102341;27;20092;-85
2023/01/03 10:17:25;;;;;;;24.58;4.90;;;;;;;6.27;100.00;100135.13;5141505;27;20427;-85
2023/01/03 10:19:55;;;;;;;45.00;7.90;;;;;;;6.29;100.00;100125.53;5123478;27;20053;-85
2023/01/03 10:22:32;;;;;;;25.23;6.10;;;;;;;5.93;100.00;100076.28;5120655;27;20049;-86
2023/01/03 10:25:11;;;;;;;24.08;4.65;;;;;;;6.38;100.00;100114.00;5132612;27;20046;-86
2023/01/03 10:27:45;;;;;;;26.08;5.88;;;;;;;6.37;100.00;100099.28;5137929;27;20147;-86
2023/01/03 10:30:16;;;;;;;25.25;5.13;;;;;;;6.29;100.00;100122.94;5157024;27;20133;-86
2023/01/03 10:32:48;;;;;;;24.52;6.07;;;;;;;6.34;100.00;100123.66;5134865;27;20051;-86
2023/01/03 10:35:23;;;;;;;21.02;5.40;;;;;;;6.30;100.00;100116.81;5131283;27;20042;-86
2023/01/03 10:37:52;;;;;;;27.17;5.28;;;;;;;6.43;100.00;100099.13;5136333;27;20445;-85
2023/01/03 10:40:19;;;;;;;23.42;6.07;;;;;;;6.25;100.00;100051.97;5144881;27;20055;-86
2023/01/03 10:42:49;;;;;;;20.80;6.25;;;;;;;6.54;100.00;100080.56;5138669;27;20476;-86
2023/01/03 10:45:19;;;;;;;27.98;6.97;;;;;;;6.52;100.00;100078.03;5137618;27;20042;-86
2023/01/03 10:48:00;;;;;;;24.00;5.43;;;;;;;6.47;100.00;100065.16;5137402;27;20507;-86
2023/01/03 10:50:28;;;;;;;22.23;5.30;;;;;;;6.43;100.00;100047.94;5140307;27;20065;-86
2023/01/03 10:52:58;;;;;;;21.65;4.97;;;;;;;6.24;100.00;100021.66;5135998;27;20050;-86
2023/01/03 10:55:26;;;;;;;21.48;5.55;;;;;;;6.56;100.00;100060.56;5136482;27;20046;-86
2023/01/03 10:58:01;;;;;;;23.08;6.72;;;;;;;6.40;100.00;100031.59;5154275;27;21463;-86
2023/01/03 11:00:29;;;;;;;20.77;5.60;;;;;;;6.60;100.00;100043.94;5151932;27;20046;-86
2023/01/03 11:03:15;;;;;;;24.77;6.40;;;;;;;6.40;100.00;100044.59;5132909;27;20484;-87
2023/01/03 11:05:49;;;;;;;22.70;5.88;;;;;;;6.59;100.00;100019.69;5132594;27;20073;-86
2023/01/03 11:08:17;;;;;;;19.88;6.55;;;;;;;6.79;100.00;100052.84;5130732;27;20055;-86
2023/01/03 11:10:52;;;;;;;25.63;5.13;;;;;;;6.51;100.00;100029.50;5141109;27;20042;-86
2023/01/03 11:13:36;;;;;;;23.02;5.50;;;;;;;6.77;100.00;100059.03;5137307;27;20066;-85
2023/01/03 11:16:16;;;;;;;26.75;6.25;;;;;;;6.49;100.00;100049.50;5124567;27;20054;-86
2023/01/03 11:18:57;;;;;;;37.65;7.30;;;;;;;6.57;100.00;100046.63;5128729;27;20054;-87
2023/01/03 11:21:31;;;;;;;26.88;6.63;;;;;;;6.44;100.00;100026.22;5129017;27;20050;-86
2023/01/03 11:24:03;;;;;;;;;;;;;;;6.66;100.00;100056.78;5129169;27;20062;-87
2023/01/03 11:26:39;;;;;;;33.22;7.88;;;;;;;6.62;100.00;100043.03;5130477;27;20458;-87
2023/01/03 11:29:24;;;;;;;31.90;7.53;;;;;;;6.56;100.00;100043.19;5128274;27;20046;-87
2023/01/03 11:32:17;;;;;;;29.30;6.43;;;;;;;6.72;100.00;100058.31;5146158;27;20715;-85
2023/01/03 11:35:04;;;;;;;28.67;6.63;;;;;;;6.78;100.00;100045.97;5127982;27;20051;-85
2023/01/03 11:38:10;;;;;;;26.27;6.03;;;;;;;6.76;100.00;100013.09;5134278;27;20496;-86
2023/01/03 11:41:12;;;;;;;30.65;6.82;;;;;;;6.80;100.00;100046.75;5141021;27;20487;-86
2023/01/03 11:44:21;;;;;;;32.95;7.35;;;;;;;6.72;100.00;100040.94;5131098;27;20065;-86
2023/01/03 11:47:21;;;;;;;27.65;7.55;;;;;;;6.84;100.00;100042.31;5127952;27;20053;-84
2023/01/03 11:50:24;;;;;;;24.52;5.45;;;;;;;6.65;100.00;99993.47;5124571;27;20062;-85
2023/01/03 11:53:31;;;;;;;21.77;5.93;;;;;;;6.84;100.00;100030.13;5128212;27;20046;-85
2023/01/03 11:56:08;;;;;;;18.27;6.97;;;;;;;6.84;100.00;100034.50;5127953;27;20111;-85
2023/01/03 11:58:44;;;;;;;23.48;5.43;;;;;;;6.73;100.00;100029.66;5120166;27;20166;-85
2023/01/03 12:01:31;;;;;;;19.55;5.40;;;;;;;6.85;100.00;100025.78;5127635;27;20046;-85
2023/01/03 12:04:17;;;;;;;15.20;4.70;;;;;;;6.74;100.00;100014.88;5126781;27;20394;-85
2023/01/03 12:07:02;;;;;;;18.15;5.68;;;;;;;6.52;100.00;99960.97;5144600;27;20051;-84
2023/01/03 12:10:16;;;;;;;28.42;7.97;;;;;;;6.40;100.00;99941.41;5137938;27;20075;-84
2023/01/03 12:13:01;;;;;;;18.13;4.97;;;;;;;6.70;100.00;99988.13;5119391;27;20055;-84
2023/01/03 12:15:45;;;;;;;16.15;6.10;;;;;;;6.53;100.00;99985.22;5124035;27;20051;-84
2023/01/03 12:18:21;;;;;;;;;;;;;;;6.49;100.00;99981.03;5146143;27;20047;-84
2023/01/03 12:20:56;;;;;;;19.52;6.68;;;;;;;6.26;100.00;99928.88;5126251;27;19923;-84
2023/01/03 12:23:47;;;;;;;20.25;6.05;;;;;;;6.58;100.00;99965.97;5146938;27;20066;-84
2023/01/03 12:26:16;;;;;;;23.63;6.85;;;;;;;6.10;100.00;99906.03;5128973;27;20047;-84
2023/01/03 12:29:24;;;;;;;26.95;7.90;;;;;;;6.27;100.00;99943.59;5149525;27;20149;-85
2023/01/03 12:32:02;;;;;;;28.38;10.00;;;;;;;5.84;100.00;99863.50;5143281;27;20078;-84
2023/01/03 12:34:41;;;;;;;19.38;7.78;;;;;;;6.49;100.00;99935.06;5141810;27;20704;-84
2023/01/03 12:37:29;;;;;;;19.65;6.63;;;;;;;5.78;100.00;99833.38;5139686;27;20053;-84
2023/01/03 12:40:00;;;;;;;19.98;6.78;;;;;;;6.09;100.00;99871.38;5149028;27;20055;-84
2023/01/03 12:42:31;;;;;;;23.20;7.68;;;;;;;6.59;100.00;99935.63;5130050;27;20062;-85
2023/01/03 12:45:21;;;;;;;17.15;6.55;;;;;;;6.45;100.00;99913.53;5130699;27;20074;-84
2023/01/03 12:48:15;;;;;;;21.02;7.13;;;;;;;6.76;100.00;99945.44;5119766;27;20130;-85